createdAt,value
2017-09-10T00:00:21.299Z,15.00
2017-09-10T00:02:49.264Z,15.00
2017-09-10T00:05:17.859Z,14.90
2017-09-10T00:07:46.720Z,14.90
2017-09-10T00:10:14.212Z,14.90
2017-09-10T00:12:41.670Z,14.90
2017-09-10T00:15:09.281Z,14.80
2017-09-10T00:17:36.844Z,14.80
2017-09-10T00:20:04.326Z,14.80
2017-09-10T00:22:32.990Z,14.70
2017-09-10T00:25:01.785Z,14.70
2017-09-10T00:27:29.602Z,14.70
2017-09-10T00:29:57.919Z,14.60
2017-09-10T00:32:26.756Z,14.60
2017-09-10T00:34:55.318Z,14.50
2017-09-10T00:37:23.395Z,14.50
2017-09-10T00:39:52.303Z,14.50
2017-09-10T00:42:19.781Z,14.50
2017-09-10T00:44:48.415Z,14.50
2017-09-10T00:47:16.328Z,14.50
2017-09-10T00:49:45.289Z,14.40
2017-09-10T00:52:13.604Z,14.40
2017-09-10T00:54:41.033Z,14.40
2017-09-10T00:57:09.161Z,14.40
2017-09-10T00:59:36.610Z,14.40
2017-09-10T01:02:04.441Z,14.40
2017-09-10T01:04:33.190Z,14.30
2017-09-10T01:07:00.650Z,14.30
2017-09-10T01:09:29.304Z,14.30
2017-09-10T01:11:57.310Z,14.30
2017-09-10T01:14:24.797Z,14.20
2017-09-10T01:16:53.231Z,14.20
2017-09-10T01:19:20.773Z,14.20
2017-09-10T01:21:48.317Z,14.20
2017-09-10T01:24:16.356Z,14.20
2017-09-10T01:26:44.592Z,14.20
2017-09-10T01:29:12.835Z,14.10
2017-09-10T01:31:41.164Z,14.10
2017-09-10T01:34:08.645Z,14.00
2017-09-10T01:36:36.869Z,14.00
2017-09-10T01:39:05.164Z,13.90
2017-09-10T01:41:33.817Z,13.90
2017-09-10T01:44:02.096Z,13.90
2017-09-10T01:46:31.055Z,13.90
2017-09-10T01:48:58.501Z,13.90
2017-09-10T01:51:26.746Z,13.90
2017-09-10T01:53:54.547Z,13.90
2017-09-10T01:56:24.028Z,13.80
2017-09-10T01:58:52.766Z,13.80
2017-09-10T02:01:21.530Z,13.80
2017-09-10T02:03:48.996Z,13.80
2017-09-10T02:06:17.210Z,13.80
2017-09-10T02:08:44.878Z,13.80
2017-09-10T02:11:14.066Z,13.80
2017-09-10T02:13:42.827Z,13.80
2017-09-10T02:16:10.308Z,13.70
2017-09-10T02:18:38.172Z,13.80
2017-09-10T02:21:05.683Z,13.70
2017-09-10T02:23:33.520Z,13.70
2017-09-10T02:26:01.294Z,13.60
2017-09-10T02:28:28.741Z,13.60
2017-09-10T02:30:56.681Z,13.60
2017-09-10T02:33:24.312Z,13.60
2017-09-10T02:35:51.799Z,13.60
2017-09-10T02:38:19.882Z,13.60
2017-09-10T02:40:47.762Z,13.60
2017-09-10T02:43:16.017Z,13.60
2017-09-10T02:45:45.506Z,13.60
2017-09-10T02:48:13.829Z,13.50
2017-09-10T02:50:41.288Z,13.50
2017-09-10T02:53:09.016Z,13.50
2017-09-10T02:55:36.558Z,13.50
2017-09-10T02:58:04.334Z,13.50
2017-09-10T03:00:32.257Z,13.40
2017-09-10T03:03:00.759Z,13.30
2017-09-10T03:05:28.739Z,13.30
2017-09-10T03:07:57.308Z,13.30
2017-09-10T03:10:25.250Z,13.30
2017-09-10T03:12:53.483Z,13.30
2017-09-10T03:15:20.977Z,13.20
2017-09-10T03:17:48.664Z,13.30
2017-09-10T03:20:16.222Z,13.30
2017-09-10T03:22:44.946Z,13.30
2017-09-10T03:25:12.948Z,13.30
2017-09-10T03:27:40.439Z,13.30
2017-09-10T03:30:07.997Z,13.30
2017-09-10T03:32:35.858Z,13.30
2017-09-10T03:35:04.091Z,13.30
2017-09-10T03:37:31.522Z,13.30
2017-09-10T03:39:59.285Z,13.20
2017-09-10T03:42:26.884Z,13.20
2017-09-10T03:44:55.455Z,13.20
2017-09-10T03:47:27.145Z,13.20
2017-09-10T03:49:54.636Z,13.20
2017-09-10T03:52:23.121Z,13.20
2017-09-10T03:54:50.597Z,13.20
2017-09-10T03:57:19.208Z,13.10
2017-09-10T03:59:47.932Z,13.10
2017-09-10T04:02:15.729Z,13.10
2017-09-10T04:04:44.197Z,13.10
2017-09-10T04:07:12.417Z,13.10
2017-09-10T04:09:40.409Z,13.10
2017-09-10T04:12:09.157Z,13.00
2017-09-10T04:14:36.608Z,13.00
2017-09-10T04:17:04.118Z,13.10
2017-09-10T04:19:31.557Z,13.10
2017-09-10T04:21:59.115Z,13.10
2017-09-10T04:24:27.897Z,13.00
2017-09-10T04:26:55.511Z,13.00
2017-09-10T04:29:22.999Z,13.00
2017-09-10T04:31:51.572Z,13.00
2017-09-10T04:34:19.613Z,13.00
2017-09-10T04:36:48.289Z,13.00
2017-09-10T04:39:17.051Z,13.00
2017-09-10T04:41:44.501Z,13.00
2017-09-10T04:44:12.937Z,13.10
2017-09-10T04:46:40.922Z,13.00
2017-09-10T04:49:09.570Z,13.10
2017-09-10T04:51:38.357Z,13.00
2017-09-10T04:54:05.993Z,13.10
2017-09-10T04:56:33.445Z,13.10
2017-09-10T04:59:02.210Z,13.10
2017-09-10T05:01:30.790Z,13.10
2017-09-10T05:03:59.713Z,13.10
2017-09-10T05:06:27.309Z,13.10
2017-09-10T05:08:55.632Z,13.10
2017-09-10T05:11:23.222Z,13.00
2017-09-10T05:13:50.753Z,13.10
2017-09-10T05:16:19.070Z,13.00
2017-09-10T05:18:46.837Z,13.00
2017-09-10T05:21:14.341Z,13.10
2017-09-10T05:23:42.386Z,13.00
2017-09-10T05:26:10.769Z,13.00
2017-09-10T05:28:38.281Z,13.00
2017-09-10T05:31:07.322Z,13.00
2017-09-10T05:33:34.829Z,13.00
2017-09-10T05:36:02.344Z,13.00
2017-09-10T05:38:30.166Z,13.00
2017-09-10T05:40:57.675Z,13.00
2017-09-10T05:43:25.449Z,13.00
2017-09-10T05:45:53.499Z,13.10
2017-09-10T05:48:21.559Z,13.10
2017-09-10T05:50:49.780Z,13.10
2017-09-10T05:53:17.330Z,13.10
2017-09-10T05:55:45.142Z,13.10
2017-09-10T05:58:14.184Z,13.20
2017-09-10T06:00:42.415Z,13.20
2017-09-10T06:03:09.932Z,13.20
2017-09-10T06:05:38.334Z,13.30
2017-09-10T06:08:05.932Z,13.30
2017-09-10T06:10:34.274Z,13.30
2017-09-10T06:13:02.730Z,13.40
2017-09-10T06:15:31.075Z,13.40
2017-09-10T06:17:58.587Z,13.40
2017-09-10T06:20:26.641Z,13.40
2017-09-10T06:22:54.597Z,13.50
2017-09-10T06:25:23.026Z,13.50
2017-09-10T06:27:52.243Z,13.50
2017-09-10T06:30:20.206Z,13.50
2017-09-10T06:32:48.161Z,13.60
2017-09-10T06:35:15.678Z,13.60
2017-09-10T06:37:44.808Z,13.60
2017-09-10T06:40:12.773Z,13.60
2017-09-10T06:42:40.291Z,13.60
2017-09-10T06:45:07.891Z,13.70
2017-09-10T06:47:35.941Z,13.70
2017-09-10T06:50:03.732Z,13.80
2017-09-10T06:52:31.500Z,13.80
2017-09-10T06:54:59.009Z,13.90
2017-09-10T06:57:26.966Z,13.90
2017-09-10T06:59:56.893Z,14.00
2017-09-10T07:02:24.717Z,14.10
2017-09-10T07:04:52.269Z,14.10
2017-09-10T07:07:19.737Z,14.10
2017-09-10T07:09:47.857Z,14.20
2017-09-10T07:12:15.853Z,14.20
2017-09-10T07:14:43.454Z,14.20
2017-09-10T07:17:11.354Z,14.20
2017-09-10T07:19:39.695Z,14.30
2017-09-10T07:22:07.249Z,14.30
2017-09-10T07:24:36.373Z,14.20
2017-09-10T07:27:03.878Z,14.20
2017-09-10T07:29:32.555Z,14.30
2017-09-10T07:32:00.792Z,14.40
2017-09-10T07:34:29.738Z,14.30
2017-09-10T07:36:57.245Z,14.40
2017-09-10T07:39:25.207Z,14.50
2017-09-10T07:41:52.737Z,14.50
2017-09-10T07:44:21.046Z,14.50
2017-09-10T07:46:49.101Z,14.50
2017-09-10T07:49:16.963Z,14.60
2017-09-10T07:51:44.659Z,14.60
2017-09-10T07:54:12.437Z,14.70
2017-09-10T07:56:40.732Z,14.70
2017-09-10T07:59:08.961Z,14.70
2017-09-10T08:01:36.971Z,14.70
2017-09-10T08:04:06.405Z,14.80
2017-09-10T08:06:33.945Z,14.80
2017-09-10T08:09:01.993Z,14.80
2017-09-10T08:11:29.604Z,14.80
2017-09-10T08:13:57.301Z,14.90
2017-09-10T08:16:24.935Z,14.80
2017-09-10T08:18:53.002Z,14.90
2017-09-10T08:21:20.829Z,14.80
2017-09-10T08:23:49.169Z,14.90
2017-09-10T08:26:17.165Z,15.00
2017-09-10T08:28:44.682Z,15.00
2017-09-10T08:31:12.543Z,15.10
2017-09-10T08:33:40.057Z,15.10
2017-09-10T08:36:08.326Z,15.30
2017-09-10T08:38:36.822Z,15.40
2017-09-10T08:41:04.324Z,15.40
2017-09-10T08:43:32.115Z,15.50
2017-09-10T08:45:59.976Z,15.50
2017-09-10T08:48:27.488Z,15.60
2017-09-10T08:50:54.991Z,15.70
2017-09-10T08:53:23.637Z,15.80
2017-09-10T08:55:51.983Z,15.80
2017-09-10T08:58:20.213Z,15.90
2017-09-10T09:00:48.510Z,16.00
2017-09-10T09:03:16.044Z,16.00
2017-09-10T09:05:43.552Z,16.00
2017-09-10T09:08:11.685Z,16.10
2017-09-10T09:10:39.986Z,16.20
2017-09-10T09:13:07.767Z,16.20
2017-09-10T09:15:35.637Z,16.20
2017-09-10T09:18:03.151Z,16.20
2017-09-10T09:20:30.837Z,16.30
2017-09-10T09:22:59.072Z,16.40
2017-09-10T09:25:27.119Z,16.50
2017-09-10T09:27:54.635Z,16.50
2017-09-10T09:30:22.138Z,16.60
2017-09-10T09:32:52.175Z,16.50
2017-09-10T09:35:19.680Z,16.50
2017-09-10T09:37:49.874Z,16.60
2017-09-10T09:40:18.209Z,16.70
2017-09-10T09:42:47.058Z,16.70
2017-09-10T09:45:14.784Z,16.80
2017-09-10T09:47:43.350Z,17.00
2017-09-10T09:50:10.860Z,16.90
2017-09-10T09:52:38.822Z,17.00
2017-09-10T09:55:07.136Z,17.20
2017-09-10T09:57:35.150Z,17.20
2017-09-10T10:00:03.825Z,17.20
2017-09-10T10:02:31.823Z,17.40
2017-09-10T10:04:59.310Z,17.50
2017-09-10T10:07:27.633Z,17.70
2017-09-10T10:09:55.512Z,17.70
2017-09-10T10:12:24.079Z,17.60
2017-09-10T10:14:52.309Z,17.60
2017-09-10T10:17:19.747Z,17.60
2017-09-10T10:19:47.747Z,17.50
2017-09-10T10:22:15.197Z,17.50
2017-09-10T10:24:43.525Z,17.60
2017-09-10T10:27:10.958Z,17.60
2017-09-10T10:29:38.414Z,17.70
2017-09-10T10:32:07.409Z,17.90
2017-09-10T10:34:35.293Z,17.90
2017-09-10T10:37:02.718Z,18.00
2017-09-10T10:39:30.721Z,18.00
2017-09-10T10:41:58.540Z,18.10
2017-09-10T10:44:26.002Z,18.20
2017-09-10T10:46:53.969Z,18.00
2017-09-10T10:49:22.533Z,17.90
2017-09-10T10:51:49.973Z,17.90
2017-09-10T10:54:17.446Z,17.90
2017-09-10T10:56:45.685Z,17.80
2017-09-10T10:59:13.931Z,17.90
2017-09-10T11:01:41.885Z,17.90
2017-09-10T11:04:09.947Z,17.80
2017-09-10T11:06:38.214Z,17.80
2017-09-10T11:09:06.874Z,17.70
2017-09-10T11:11:34.321Z,17.70
2017-09-10T11:14:02.669Z,17.80
2017-09-10T11:16:30.133Z,17.80
2017-09-10T11:18:59.196Z,17.90
2017-09-10T11:21:26.698Z,17.90
2017-09-10T11:23:54.751Z,18.00
2017-09-10T11:26:22.954Z,18.20
2017-09-10T11:28:52.345Z,18.50
2017-09-10T11:31:20.894Z,18.50
2017-09-10T11:33:48.821Z,18.50
2017-09-10T11:36:16.286Z,18.60
2017-09-10T11:38:44.080Z,18.70
2017-09-10T11:41:11.591Z,18.90
2017-09-10T11:43:39.100Z,19.00
2017-09-10T11:46:07.026Z,19.20
2017-09-10T11:48:34.750Z,19.40
2017-09-10T11:51:02.274Z,19.60
2017-09-10T11:53:29.744Z,19.60
2017-09-10T11:55:57.318Z,19.50
2017-09-10T11:58:25.252Z,19.40
2017-09-10T12:00:53.400Z,19.40
2017-09-10T12:03:21.801Z,19.40
2017-09-10T12:05:49.339Z,19.60
2017-09-10T12:08:16.853Z,19.70
2017-09-10T12:10:44.719Z,19.70
2017-09-10T12:13:12.276Z,19.90
2017-09-10T12:15:39.740Z,20.10
2017-09-10T12:18:07.341Z,20.20
2017-09-10T12:20:35.499Z,20.20
2017-09-10T12:23:03.464Z,20.10
2017-09-10T12:25:31.786Z,19.90
2017-09-10T12:28:00.018Z,19.60
2017-09-10T12:30:27.965Z,19.50
2017-09-10T12:32:55.827Z,19.50
2017-09-10T12:35:23.845Z,19.50
2017-09-10T12:37:51.362Z,19.60
2017-09-10T12:52:16.135Z,19.90
2017-09-10T12:54:44.139Z,20.10
2017-09-10T12:57:12.819Z,20.00
2017-09-10T12:59:40.436Z,20.00
2017-09-10T13:02:08.108Z,20.00
2017-09-10T13:04:36.257Z,19.90
2017-09-10T13:07:03.779Z,20.00
2017-09-10T13:09:31.311Z,20.20
2017-09-10T13:11:59.820Z,20.10
2017-09-10T13:14:27.335Z,20.00
2017-09-10T13:16:55.105Z,19.90
2017-09-10T13:19:22.625Z,19.70
2017-09-10T13:21:50.212Z,19.50
2017-09-10T13:24:19.015Z,19.40
2017-09-10T13:26:47.190Z,19.30
2017-09-10T13:29:14.720Z,19.50
2017-09-10T13:31:42.569Z,19.60
2017-09-10T13:34:10.138Z,19.80
2017-09-10T13:36:38.183Z,20.10
2017-09-10T13:39:05.915Z,20.40
2017-09-10T13:41:33.512Z,20.60
2017-09-10T13:44:01.108Z,20.60
2017-09-10T13:46:29.249Z,20.60
2017-09-10T13:48:56.760Z,20.40
2017-09-10T13:51:24.598Z,20.20
2017-09-10T13:53:52.107Z,20.00
2017-09-10T13:56:19.613Z,20.00
2017-09-10T13:58:49.113Z,20.20
2017-09-10T14:01:17.334Z,20.20
2017-09-10T14:03:44.846Z,20.10
2017-09-10T14:06:12.799Z,20.00
2017-09-10T14:08:40.319Z,19.90
2017-09-10T14:11:08.094Z,19.90
2017-09-10T14:13:35.979Z,20.10
2017-09-10T14:16:03.551Z,20.20
2017-09-10T14:18:31.514Z,20.40
2017-09-10T14:20:59.120Z,20.60
2017-09-10T14:23:27.011Z,20.60
2017-09-10T14:25:54.984Z,20.60
2017-09-10T14:28:22.481Z,20.60
2017-09-10T14:30:49.995Z,20.60
2017-09-10T14:33:18.398Z,20.60
2017-09-10T14:35:46.719Z,20.50
2017-09-10T14:38:14.626Z,20.50
2017-09-10T14:40:43.028Z,20.40
2017-09-10T14:43:10.610Z,20.40
2017-09-10T14:45:39.185Z,20.40
2017-09-10T14:48:07.418Z,20.40
2017-09-10T14:50:35.694Z,20.50
2017-09-10T14:53:03.898Z,20.50
2017-09-10T14:55:31.542Z,20.40
2017-09-10T14:58:00.129Z,20.40
2017-09-10T15:00:28.005Z,20.30
2017-09-10T15:02:56.403Z,20.00
2017-09-10T15:05:24.605Z,19.90
2017-09-10T15:07:53.566Z,19.80
2017-09-10T15:10:21.054Z,19.80
2017-09-10T15:12:48.998Z,19.80
2017-09-10T15:15:17.209Z,19.90
2017-09-10T15:17:46.191Z,19.80
2017-09-10T15:20:13.754Z,19.80
2017-09-10T15:22:41.737Z,19.70
2017-09-10T15:25:09.698Z,19.50
2017-09-10T15:27:37.927Z,19.20
2017-09-10T15:30:06.102Z,19.20
2017-09-10T15:32:34.787Z,19.20
2017-09-10T15:35:02.277Z,19.10
2017-09-10T15:37:30.112Z,19.20
2017-09-10T15:39:57.559Z,19.30
2017-09-10T15:42:25.334Z,19.40
2017-09-10T15:44:52.772Z,19.60
2017-09-10T15:47:21.022Z,19.80
2017-09-10T15:49:48.625Z,20.00
2017-09-10T15:52:16.097Z,19.90
2017-09-10T15:54:43.544Z,20.00
2017-09-10T15:57:11.690Z,19.90
2017-09-10T15:59:39.123Z,19.90
2017-09-10T16:02:07.617Z,19.70
2017-09-10T16:04:35.999Z,19.70
2017-09-10T16:07:05.138Z,19.60
2017-09-10T16:09:32.610Z,19.60
2017-09-10T16:12:00.093Z,19.50
2017-09-10T16:14:28.015Z,19.50
2017-09-10T16:16:56.092Z,19.50
2017-09-10T16:19:23.910Z,19.40
2017-09-10T16:21:53.150Z,19.40
2017-09-10T16:24:21.169Z,19.40
2017-09-10T16:26:49.919Z,19.30
2017-09-10T16:29:18.384Z,19.30
2017-09-10T16:31:46.610Z,19.30
2017-09-10T16:34:14.089Z,19.20
2017-09-10T16:36:41.593Z,19.30
2017-09-10T16:39:09.380Z,19.20
2017-09-10T16:41:36.827Z,19.20
2017-09-10T16:44:04.278Z,19.30
2017-09-10T16:46:33.892Z,19.10
2017-09-10T16:49:02.768Z,19.10
2017-09-10T16:51:30.272Z,19.00
2017-09-10T16:53:59.511Z,18.90
2017-09-10T16:56:27.185Z,18.90
2017-09-10T16:58:55.333Z,18.80
2017-09-10T17:01:24.386Z,18.80
2017-09-10T17:03:51.905Z,18.70
2017-09-10T17:06:20.706Z,18.60
2017-09-10T17:08:48.767Z,18.70
2017-09-10T17:11:16.818Z,18.60
2017-09-10T17:13:44.765Z,18.60
2017-09-10T17:16:12.824Z,18.60
2017-09-10T17:18:40.302Z,18.50
2017-09-10T17:21:08.321Z,18.60
2017-09-10T17:23:36.143Z,18.60
2017-09-10T17:26:04.047Z,18.70
2017-09-10T17:28:31.566Z,18.70
2017-09-10T17:30:59.164Z,18.60
2017-09-10T17:33:27.473Z,18.60
2017-09-10T17:35:55.499Z,18.60
2017-09-10T17:38:23.392Z,18.50
2017-09-10T17:40:51.367Z,18.60
2017-09-10T17:43:18.885Z,18.50
2017-09-10T17:45:47.196Z,18.50
2017-09-10T17:48:15.139Z,18.40
2017-09-10T17:50:43.434Z,18.40
2017-09-10T17:53:10.951Z,18.40
2017-09-10T17:55:39.266Z,18.30
2017-09-10T17:58:07.049Z,18.30
2017-09-10T18:00:36.026Z,18.20
2017-09-10T18:03:03.570Z,18.20
2017-09-10T18:05:32.384Z,18.20
2017-09-10T18:08:01.281Z,18.20
2017-09-10T18:10:29.065Z,18.10
2017-09-10T18:12:57.292Z,18.10
2017-09-10T18:15:25.175Z,18.10
2017-09-10T18:17:53.975Z,18.00
2017-09-10T18:20:21.483Z,18.00
2017-09-10T18:22:50.167Z,18.00
2017-09-10T18:25:18.057Z,18.00
2017-09-10T18:27:45.543Z,17.90
2017-09-10T18:30:13.322Z,17.90
2017-09-10T18:32:41.626Z,17.70
2017-09-10T18:35:09.512Z,17.70
2017-09-10T18:37:38.171Z,17.70
2017-09-10T18:40:05.696Z,17.70
2017-09-10T18:42:33.558Z,17.70
2017-09-10T18:45:01.070Z,17.70
2017-09-10T18:47:28.945Z,17.60
2017-09-10T18:49:56.462Z,17.60
2017-09-10T18:52:24.002Z,17.50
2017-09-10T18:54:51.546Z,17.50
2017-09-10T18:57:19.784Z,17.50
2017-09-10T18:59:47.320Z,17.40
2017-09-10T19:02:15.051Z,17.40
2017-09-10T19:04:43.871Z,17.40
2017-09-10T19:07:11.833Z,17.40
2017-09-10T19:09:40.284Z,17.40
2017-09-10T19:12:07.988Z,17.30
2017-09-10T19:14:36.386Z,17.30
2017-09-10T19:17:03.904Z,17.30
2017-09-10T19:19:31.775Z,17.30
2017-09-10T19:21:59.376Z,17.20
2017-09-10T19:24:27.514Z,17.20
2017-09-10T19:26:55.448Z,17.20
2017-09-10T19:29:22.980Z,17.20
2017-09-10T19:31:50.694Z,17.20
2017-09-10T19:34:18.206Z,17.10
2017-09-10T19:36:46.958Z,17.10
2017-09-10T19:39:14.468Z,17.10
2017-09-10T19:41:43.237Z,17.00
2017-09-10T19:44:10.756Z,17.00
2017-09-10T19:46:40.418Z,17.00
2017-09-10T19:49:08.287Z,17.00
2017-09-10T19:51:36.246Z,17.00
2017-09-10T19:54:03.761Z,16.90
2017-09-10T19:56:31.358Z,17.00
2017-09-10T19:58:59.314Z,16.90
2017-09-10T20:01:28.054Z,17.00
2017-09-10T20:03:57.819Z,17.00
2017-09-10T20:06:25.422Z,17.00
2017-09-10T20:08:54.017Z,17.00
2017-09-10T20:11:21.662Z,17.00
2017-09-10T20:13:49.264Z,17.10
2017-09-10T20:16:16.809Z,17.00
2017-09-10T20:18:45.045Z,17.00
2017-09-10T20:21:13.584Z,17.00
2017-09-10T20:23:41.543Z,16.90
2017-09-10T20:26:09.413Z,16.90
2017-09-10T20:28:36.974Z,16.90
2017-09-10T20:31:05.244Z,16.70
2017-09-10T20:33:33.401Z,16.70
2017-09-10T20:36:01.280Z,16.70
2017-09-10T20:38:28.785Z,16.70
2017-09-10T20:40:56.830Z,16.60
2017-09-10T20:43:24.789Z,16.60
2017-09-10T20:45:53.561Z,16.70
2017-09-10T20:48:22.321Z,16.70
2017-09-10T20:50:49.834Z,16.70
2017-09-10T20:53:17.410Z,16.70
2017-09-10T20:55:44.924Z,16.70
2017-09-10T20:58:12.794Z,16.60
2017-09-10T21:00:40.844Z,16.60
2017-09-10T21:03:08.424Z,16.60
2017-09-10T21:05:36.034Z,16.60
2017-09-10T21:08:03.712Z,16.60
2017-09-10T21:10:32.745Z,16.60
2017-09-10T21:13:00.358Z,16.60
2017-09-10T21:15:28.126Z,16.60
2017-09-10T21:17:55.642Z,16.60
2017-09-10T21:20:23.140Z,16.60
2017-09-10T21:22:51.100Z,16.60
2017-09-10T21:25:19.941Z,16.60
2017-09-10T21:27:47.506Z,16.50
2017-09-10T21:30:15.780Z,16.40
2017-09-10T21:32:43.740Z,16.40
2017-09-10T21:35:12.649Z,16.30
2017-09-10T21:37:40.201Z,16.30
2017-09-10T21:40:08.196Z,16.20
2017-09-10T21:42:36.250Z,16.20
2017-09-10T21:45:03.734Z,16.20
2017-09-10T21:47:31.910Z,16.10
2017-09-10T21:49:59.778Z,16.20
2017-09-10T21:52:27.657Z,16.20
2017-09-10T21:54:57.515Z,16.20
2017-09-10T21:57:25.638Z,16.20
2017-09-10T21:59:53.149Z,16.30
2017-09-10T22:02:21.784Z,16.30
2017-09-10T22:04:49.418Z,16.30
2017-09-10T22:07:17.087Z,16.30
2017-09-10T22:09:45.330Z,16.30
2017-09-10T22:12:12.854Z,16.30
2017-09-10T22:14:40.429Z,16.20
2017-09-10T22:17:08.305Z,16.30
2017-09-10T22:19:36.708Z,16.20
2017-09-10T22:22:04.214Z,16.20
2017-09-10T22:24:33.085Z,16.20
2017-09-10T22:27:02.120Z,16.30
2017-09-10T22:29:29.721Z,16.30
2017-09-10T22:32:27.676Z,16.20
2017-09-10T22:34:55.304Z,16.30
2017-09-10T22:37:24.032Z,16.30
2017-09-10T22:39:52.075Z,16.30
2017-09-10T22:42:19.580Z,16.30
2017-09-10T22:44:47.366Z,16.30
2017-09-10T22:47:15.532Z,16.20
2017-09-10T22:49:43.553Z,16.20
2017-09-10T22:52:11.517Z,16.20
2017-09-10T22:54:39.043Z,16.20
2017-09-10T22:57:07.251Z,16.20
2017-09-10T22:59:34.887Z,16.20
2017-09-10T23:02:03.174Z,16.20
2017-09-10T23:04:31.227Z,16.20
2017-09-10T23:06:58.727Z,16.20
2017-09-10T23:09:26.240Z,16.20
2017-09-10T23:11:53.752Z,16.10
2017-09-10T23:14:22.791Z,16.10
2017-09-10T23:16:50.790Z,16.10
2017-09-10T23:19:19.454Z,16.10
2017-09-10T23:21:46.965Z,16.10
2017-09-10T23:24:14.833Z,16.10
2017-09-10T23:26:43.186Z,16.10
2017-09-10T23:29:10.754Z,16.20
2017-09-10T23:31:38.988Z,16.20
2017-09-10T23:34:06.496Z,16.20
2017-09-10T23:36:34.006Z,16.20
2017-09-10T23:39:02.240Z,16.10
2017-09-10T23:41:31.100Z,16.10
2017-09-10T23:43:58.604Z,16.10
2017-09-10T23:46:29.026Z,16.00
2017-09-10T23:48:57.216Z,16.00
2017-09-10T23:51:25.313Z,16.00
2017-09-10T23:53:54.078Z,15.90
2017-09-10T23:56:21.587Z,15.80
2017-09-10T23:58:49.453Z,15.90
